Time;durP1;ratioP1;P1;durP2;ratioP2;P2;SDS_P1;SDS_P2;PMS_P1;PMS_P2;Temp;Humidity;BMP_temperature;BMP_pressure;BME280_temperature;BME280_humidity;BME280_pressure;Samples;Min_cycle;Max_cycle;Signal;HPM_P1;HPM_P2
2022/06/15 00:02:28;;;;;;;3.58;2.65;;;;;;;;;;5005072;28;20409;-80
2022/06/15 00:05:13;;;;;;;5.30;2.47;;;;;;;;;;5005198;28;20042;-80
2022/06/15 00:07:59;;;;;;;7.10;3.03;;;;;;;;;;5005427;28;20050;-82
2022/06/15 00:10:45;;;;;;;3.72;2.60;;;;;;;;;;5005470;28;20046;-80
2022/06/15 00:13:30;;;;;;;4.40;2.45;;;;;;;;;;4998146;28;20042;-82
2022/06/15 00:16:16;;;;;;;5.70;3.13;;;;;;;;;;5004837;28;20050;-83
2022/06/15 00:19:02;;;;;;;5.32;2.83;;;;;;;;;;5004120;28;20058;-84
2022/06/15 00:21:48;;;;;;;4.60;2.65;;;;;;;;;;4998588;28;20489;-81
2022/06/15 00:24:33;;;;;;;5.75;3.15;;;;;;;;;;5004860;28;20401;-83
2022/06/15 00:27:19;;;;;;;5.68;2.88;;;;;;;;;;5004874;28;20054;-83
2022/06/15 00:30:05;;;;;;;5.15;3.38;;;;;;;;;;5003238;28;20489;-82
2022/06/15 00:32:51;;;;;;;6.22;2.72;;;;;;;;;;5004279;28;20046;-84
2022/06/15 00:35:38;;;;;;;8.98;2.97;;;;;;;;;;5004590;28;20050;-83
2022/06/15 00:38:32;;;;;;;5.20;2.78;;;;;;;;;;4989516;28;20042;-83
2022/06/15 00:41:25;;;;;;;3.97;2.53;;;;;;;;;;4989630;28;20046;-81
2022/06/15 00:44:16;;;;;;;5.55;3.00;;;;;;;;;;4989096;28;20046;-81
2022/06/15 00:47:17;;;;;;;3.78;2.80;;;;;;;;;;4989455;28;20389;-82
2022/06/15 00:50:03;;;;;;;5.78;2.78;;;;;;;;;;5003374;28;20050;-82
2022/06/15 00:52:59;;;;;;;6.22;3.13;;;;;;;;;;5003166;28;20489;-82
2022/06/15 00:55:45;;;;;;;6.75;2.55;;;;;;;;;;4989045;28;20046;-81
2022/06/15 00:58:32;;;;;;;3.42;2.60;;;;;;;;;;4997045;28;20046;-81
2022/06/15 01:01:17;;;;;;;4.88;2.80;;;;;;;;;;4989385;28;20050;-84
2022/06/15 01:04:04;;;;;;;6.80;2.67;;;;;;;;;;5003954;28;20042;-82
2022/06/15 01:07:31;;;;;;;4.22;2.42;;;;;;;;;;5003519;28;20416;-82
2022/06/15 01:10:23;;;;;;;4.40;2.38;;;;;;;;;;5002432;28;20046;-85
2022/06/15 01:13:35;;;;;;;6.32;2.70;;;;;;;;;;5006424;28;20496;-83
2022/06/15 01:16:28;;;;;;;9.50;2.95;;;;;;;;;;5005770;28;20050;-80
2022/06/15 01:20:05;;;;;;;6.82;2.60;;;;;;;;;;5006809;28;20421;-81
2022/06/15 01:22:52;;;;;;;;;;;;;;;;;;4998309;28;20043;-82
2022/06/15 01:25:53;;;;;;;7.22;2.83;;;;;;;;;;5006756;28;19921;-81
2022/06/15 01:28:42;;;;;;;6.65;3.05;;;;;;;;;;5012989;28;20388;-82
2022/06/15 01:31:41;;;;;;;8.82;2.90;;;;;;;;;;4997280;28;20397;-82
2022/06/15 01:34:40;;;;;;;7.25;2.95;;;;;;;;;;5004996;28;20046;-84
2022/06/15 01:37:32;;;;;;;5.07;2.90;;;;;;;;;;4997988;28;20054;-83
2022/06/15 01:40:28;;;;;;;5.65;2.80;;;;;;;;;;4996645;28;20409;-82
2022/06/15 01:43:18;;;;;;;4.00;2.70;;;;;;;;;;5002557;28;20050;-82
2022/06/15 01:46:04;;;;;;;4.93;2.80;;;;;;;;;;4988637;28;20050;-81
2022/06/15 01:48:53;;;;;;;4.07;2.83;;;;;;;;;;4989057;28;20050;-82
2022/06/15 01:51:42;;;;;;;4.72;2.70;;;;;;;;;;4996400;28;20054;-81
2022/06/15 01:54:36;;;;;;;4.15;2.78;;;;;;;;;;4988507;28;20046;-82
2022/06/15 01:57:28;;;;;;;3.35;2.70;;;;;;;;;;4989607;28;20082;-84
2022/06/15 02:00:17;;;;;;;5.40;2.60;;;;;;;;;;4988025;28;20047;-84
2022/06/15 02:03:14;;;;;;;3.15;2.75;;;;;;;;;;4996942;28;20050;-82
2022/06/15 02:06:37;;;;;;;3.45;2.60;;;;;;;;;;4988169;28;20046;-83
2022/06/15 02:09:31;;;;;;;7.00;3.00;;;;;;;;;;4967784;28;20401;-83
2022/06/15 02:12:21;;;;;;;5.47;2.75;;;;;;;;;;4996269;28;20046;-83
2022/06/15 02:15:12;;;;;;;5.80;2.88;;;;;;;;;;4987795;28;20058;-83
2022/06/15 02:18:02;;;;;;;3.53;2.83;;;;;;;;;;4988112;28;20046;-83
2022/06/15 02:21:09;;;;;;;12.27;6.15;;;;;;;;;;4987692;28;20046;-83
2022/06/15 02:23:58;;;;;;;40.78;24.50;;;;;;;;;;5004760;28;20046;-84
2022/06/15 02:26:44;;;;;;;18.45;11.13;;;;;;;;;;4990201;28;20046;-81
2022/06/15 02:29:34;;;;;;;7.20;4.22;;;;;;;;;;5001742;28;20054;-82
2022/06/15 02:32:20;;;;;;;7.07;3.45;;;;;;;;;;5001448;28;20042;-82
2022/06/15 02:35:06;;;;;;;4.43;2.67;;;;;;;;;;4994959;28;20046;-84
2022/06/15 02:37:54;;;;;;;6.60;2.92;;;;;;;;;;5001674;28;20050;-83
2022/06/15 02:40:42;;;;;;;4.80;3.25;;;;;;;;;;5002535;28;20409;-83
2022/06/15 02:43:31;;;;;;;3.88;2.75;;;;;;;;;;5002394;28;20050;-83
2022/06/15 02:46:18;;;;;;;5.25;2.78;;;;;;;;;;4988954;28;20408;-81
2022/06/15 02:49:05;;;;;;;5.25;3.20;;;;;;;;;;5002398;28;20405;-81
2022/06/15 02:52:02;;;;;;;6.75;2.72;;;;;;;;;;4982990;28;20042;-84
2022/06/15 02:54:54;;;;;;;6.53;2.83;;;;;;;;;;5002957;28;20062;-82
2022/06/15 02:57:51;;;;;;;6.00;3.13;;;;;;;;;;4987736;28;20042;-81
2022/06/15 03:00:38;;;;;;;6.00;3.38;;;;;;;;;;4987828;28;20069;-82
2022/06/15 03:03:25;;;;;;;4.15;2.42;;;;;;;;;;5000663;28;20050;-84
2022/06/15 03:06:20;;;;;;;4.47;2.70;;;;;;;;;;4988576;28;20046;-83
2022/06/15 03:09:09;;;;;;;5.30;2.83;;;;;;;;;;4987541;28;20054;-83
2022/06/15 03:11:59;;;;;;;5.07;2.80;;;;;;;;;;5001031;28;20050;-84
2022/06/15 03:14:51;;;;;;;5.57;2.95;;;;;;;;;;4986860;28;20050;-81
2022/06/15 03:17:39;;;;;;;9.73;3.10;;;;;;;;;;4986475;28;20054;-82
2022/06/15 03:20:26;;;;;;;5.82;2.92;;;;;;;;;;4986499;28;20046;-83
2022/06/15 03:23:12;;;;;;;4.82;3.10;;;;;;;;;;4986844;28;20046;-83
2022/06/15 03:26:00;;;;;;;4.00;2.80;;;;;;;;;;4986031;28;20397;-82
2022/06/15 03:28:46;;;;;;;8.27;2.88;;;;;;;;;;5001545;28;20058;-82
2022/06/15 03:31:34;;;;;;;10.05;3.00;;;;;;;;;;4999785;28;20054;-82
2022/06/15 03:34:21;;;;;;;8.02;2.72;;;;;;;;;;5001139;28;20477;-82
2022/06/15 03:37:06;;;;;;;9.57;3.13;;;;;;;;;;4986566;28;20405;-81
2022/06/15 03:39:54;;;;;;;7.93;2.95;;;;;;;;;;4999609;28;20046;-82
2022/06/15 03:42:41;;;;;;;6.82;3.13;;;;;;;;;;5000195;28;20050;-83
2022/06/15 03:45:30;;;;;;;8.23;3.85;;;;;;;;;;4979963;28;20386;-83
2022/06/15 03:48:16;;;;;;;8.55;3.65;;;;;;;;;;5000746;28;20054;-80
2022/06/15 03:51:04;;;;;;;11.60;3.78;;;;;;;;;;4982993;28;20401;-83
2022/06/15 03:53:55;;;;;;;8.30;3.47;;;;;;;;;;4985857;28;20046;-84
2022/06/15 03:56:44;;;;;;;7.35;3.10;;;;;;;;;;4999787;28;20046;-80
2022/06/15 03:59:33;;;;;;;6.13;2.90;;;;;;;;;;4985820;28;20394;-82
2022/06/15 04:02:28;;;;;;;10.02;3.13;;;;;;;;;;4986292;28;20413;-82
2022/06/15 04:05:18;;;;;;;5.05;3.05;;;;;;;;;;4986184;28;20058;-82
2022/06/15 04:14:21;;;;;;;6.60;2.95;;;;;;;;;;4993909;28;20404;-83
2022/06/15 04:17:27;;;;;;;6.65;3.60;;;;;;;;;;4981691;28;20042;-80
2022/06/15 04:20:33;;;;;;;8.50;2.70;;;;;;;;;;4994078;28;20494;-81
2022/06/15 04:23:34;;;;;;;9.15;3.03;;;;;;;;;;4980353;28;20046;-81
2022/06/15 04:26:20;;;;;;;16.63;3.33;;;;;;;;;;4985405;28;20050;-81
2022/06/15 04:29:08;;;;;;;8.52;2.78;;;;;;;;;;4985579;28;20058;-81
2022/06/15 04:31:53;;;;;;;4.25;2.40;;;;;;;;;;4999674;28;20050;-80
2022/06/15 04:34:39;;;;;;;11.73;3.25;;;;;;;;;;4999454;28;20047;-82
2022/06/15 04:37:24;;;;;;;9.40;3.03;;;;;;;;;;5000094;28;20062;-82
2022/06/15 04:40:14;;;;;;;6.45;2.97;;;;;;;;;;4981270;28;20055;-81
2022/06/15 04:43:00;;;;;;;10.00;3.00;;;;;;;;;;4980522;28;20047;-83
2022/06/15 04:45:46;;;;;;;7.28;2.58;;;;;;;;;;4988166;28;20405;-83
2022/06/15 04:48:38;;;;;;;10.25;2.85;;;;;;;;;;4989583;28;20046;-83
2022/06/15 04:51:26;;;;;;;8.43;2.80;;;;;;;;;;5013773;28;20046;-82
2022/06/15 04:54:14;;;;;;;8.27;2.70;;;;;;;;;;4989659;28;20057;-85
2022/06/15 04:57:03;;;;;;;5.55;2.83;;;;;;;;;;4979516;28;20054;-83
2022/06/15 04:59:48;;;;;;;7.15;2.65;;;;;;;;;;4989690;28;20050;-83
2022/06/15 05:02:34;;;;;;;8.60;2.70;;;;;;;;;;5003503;28;20050;-82
2022/06/15 05:05:21;;;;;;;3.75;2.50;;;;;;;;;;5004282;28;20058;-82
2022/06/15 05:08:07;;;;;;;7.10;2.70;;;;;;;;;;5004267;28;20430;-80
2022/06/15 05:10:54;;;;;;;6.68;2.30;;;;;;;;;;5002521;28;20042;-81
2022/06/15 05:13:39;;;;;;;8.25;2.70;;;;;;;;;;4988546;28;20058;-80
2022/06/15 05:16:27;;;;;;;5.80;2.50;;;;;;;;;;5002619;28;20058;-83
2022/06/15 05:19:13;;;;;;;7.63;2.35;;;;;;;;;;4988653;28;20054;-82
2022/06/15 05:21:59;;;;;;;7.40;2.67;;;;;;;;;;5002758;28;20054;-80
2022/06/15 05:24:44;;;;;;;17.33;2.50;;;;;;;;;;5002101;28;20042;-81
2022/06/15 05:27:32;;;;;;;5.97;2.10;;;;;;;;;;4996531;28;20038;-82
2022/06/15 05:30:18;;;;;;;4.90;2.50;;;;;;;;;;5001925;28;20038;-79
2022/06/15 05:33:03;;;;;;;5.95;2.30;;;;;;;;;;5002209;28;20050;-80
2022/06/15 05:35:50;;;;;;;4.30;2.17;;;;;;;;;;5002012;28;20054;-80
2022/06/15 05:38:36;;;;;;;9.38;2.60;;;;;;;;;;5002071;28;20457;-81
2022/06/15 05:41:22;;;;;;;6.13;2.40;;;;;;;;;;5002301;28;20046;-81
2022/06/15 05:46:59;;;;;;;3.80;2.35;;;;;;;;;;5005304;28;20042;-79
2022/06/15 05:50:04;;;;;;;4.03;1.80;;;;;;;;;;5020865;28;20042;-80
2022/06/15 05:52:58;;;;;;;7.03;2.22;;;;;;;;;;5008150;28;20054;-80
2022/06/15 05:55:43;;;;;;;3.78;2.35;;;;;;;;;;5022192;28;20054;-80
2022/06/15 05:58:28;;;;;;;9.30;2.40;;;;;;;;;;5022966;28;20046;-81
2022/06/15 06:01:23;;;;;;;8.23;2.83;;;;;;;;;;5022283;28;20050;-81
2022/06/15 06:04:11;;;;;;;;;;;;;;;;;;5016401;28;20046;-80
2022/06/15 06:06:56;;;;;;;6.07;2.35;;;;;;;;;;5022369;28;19918;-80
2022/06/15 06:09:42;;;;;;;5.72;2.38;;;;;;;;;;5022028;28;20480;-81
2022/06/15 06:12:27;;;;;;;6.22;2.97;;;;;;;;;;5016553;28;20045;-81
2022/06/15 06:15:13;;;;;;;8.38;2.60;;;;;;;;;;5021961;28;20041;-80
2022/06/15 06:18:01;;;;;;;8.85;2.72;;;;;;;;;;5021968;28;20046;-79
2022/06/15 06:20:46;;;;;;;8.15;2.75;;;;;;;;;;5015557;28;20034;-80
2022/06/15 06:23:33;;;;;;;4.43;2.13;;;;;;;;;;5021193;28;20045;-80
2022/06/15 06:26:24;;;;;;;5.80;2.70;;;;;;;;;;5021780;28;20046;-79
2022/06/15 06:29:13;;;;;;;8.65;2.65;;;;;;;;;;5015549;28;20058;-81
2022/06/15 06:32:00;;;;;;;7.13;2.50;;;;;;;;;;5021632;28;20058;-81
2022/06/15 06:34:46;;;;;;;5.75;2.38;;;;;;;;;;5007961;28;20041;-82
2022/06/15 06:37:34;;;;;;;9.07;2.70;;;;;;;;;;5021516;28;20400;-81
2022/06/15 06:40:20;;;;;;;5.72;1.95;;;;;;;;;;5022236;28;20042;-80
2022/06/15 06:43:06;;;;;;;12.35;2.85;;;;;;;;;;5022524;28;20050;-80
2022/06/15 06:45:51;;;;;;;6.38;2.60;;;;;;;;;;5022458;28;20046;-80
2022/06/15 06:48:37;;;;;;;6.53;2.58;;;;;;;;;;5015073;28;20041;-80
2022/06/15 06:51:23;;;;;;;7.97;2.60;;;;;;;;;;5016802;28;20050;-81
2022/06/15 06:54:11;;;;;;;4.80;2.17;;;;;;;;;;5014913;28;20037;-79
2022/06/15 06:56:57;;;;;;;6.68;2.45;;;;;;;;;;5022642;28;20053;-81
2022/06/15 06:59:42;;;;;;;5.55;2.75;;;;;;;;;;5020975;28;20046;-80
2022/06/15 07:02:27;;;;;;;4.57;2.65;;;;;;;;;;5019459;28;20041;-82
2022/06/15 07:05:13;;;;;;;5.43;2.50;;;;;;;;;;5020566;28;20046;-81
2022/06/15 07:07:59;;;;;;;11.48;3.33;;;;;;;;;;5013521;28;20046;-82
2022/06/15 07:10:44;;;;;;;8.50;2.90;;;;;;;;;;5021051;28;20053;-79
2022/06/15 07:13:30;;;;;;;7.93;2.50;;;;;;;;;;5020696;28;20062;-80
2022/06/15 07:16:19;;;;;;;10.05;2.85;;;;;;;;;;5020803;28;20400;-79
2022/06/15 07:19:04;;;;;;;7.90;2.53;;;;;;;;;;5019987;28;20046;-80
2022/06/15 07:21:50;;;;;;;4.82;2.15;;;;;;;;;;5021009;28;20049;-81
2022/06/15 07:24:35;;;;;;;5.40;2.00;;;;;;;;;;5020940;28;20050;-80
2022/06/15 07:27:21;;;;;;;7.78;2.20;;;;;;;;;;5020041;28;20042;-81
2022/06/15 07:30:10;;;;;;;4.35;2.42;;;;;;;;;;5021574;28;20050;-80
2022/06/15 07:32:55;;;;;;;6.85;2.15;;;;;;;;;;5013596;28;20042;-80
2022/06/15 07:35:41;;;;;;;2.83;1.98;;;;;;;;;;5021267;28;20050;-81
2022/06/15 07:38:26;;;;;;;8.68;2.40;;;;;;;;;;5020993;28;20042;-82
2022/06/15 07:41:12;;;;;;;5.25;2.35;;;;;;;;;;5020948;28;20050;-80
2022/06/15 07:43:58;;;;;;;5.63;2.03;;;;;;;;;;5024167;28;20042;-81
2022/06/15 07:46:46;;;;;;;7.20;2.33;;;;;;;;;;5014150;28;20045;-81
2022/06/15 07:52:38;;;;;;;6.88;2.30;;;;;;;;;;5020937;28;20046;-80
2022/06/15 07:55:27;;;;;;;5.25;2.13;;;;;;;;;;5020539;28;20054;-81
2022/06/15 07:58:16;;;;;;;5.95;2.10;;;;;;;;;;5020942;28;20049;-82
2022/06/15 08:01:01;;;;;;;4.97;2.00;;;;;;;;;;5020636;28;20046;-81
2022/06/15 08:03:47;;;;;;;6.75;2.00;;;;;;;;;;5006111;28;20041;-81
2022/06/15 08:06:34;;;;;;;6.07;2.55;;;;;;;;;;5020467;28;20042;-81
2022/06/15 08:09:23;;;;;;;5.80;1.75;;;;;;;;;;5005315;28;20050;-81
2022/06/15 08:12:12;;;;;;;9.23;2.15;;;;;;;;;;5021103;28;20037;-82
2022/06/15 08:15:01;;;;;;;3.53;1.77;;;;;;;;;;5014099;28;20050;-81
2022/06/15 08:18:01;;;;;;;4.65;1.90;;;;;;;;;;5020100;28;20401;-81
2022/06/15 08:21:14;;;;;;;4.63;1.92;;;;;;;;;;5015836;28;20050;-81
2022/06/15 08:40:59;;;;;;;4.53;2.00;;;;;;;;;;4935154;29;20044;-82
2022/06/15 08:48:13;;;;;;;7.18;1.92;;;;;;;;;;4977384;28;20445;-82
2022/06/15 09:14:26;;;;;;;2.47;1.75;;;;;;;;;;5003857;28;20038;-83
2022/06/15 09:17:20;;;;;;;;;;;;;;;;;;4991338;28;20047;-84
2022/06/15 09:20:45;;;;;;;5.28;1.83;;;;;;;;;;4995294;28;19917;-82
2022/06/15 09:23:42;;;;;;;3.17;1.77;;;;;;;;;;4988642;28;20412;-82
2022/06/15 09:26:35;;;;;;;3.58;1.95;;;;;;;;;;4991056;28;20413;-83
2022/06/15 09:29:31;;;;;;;3.20;1.60;;;;;;;;;;4997590;28;20409;-82
2022/06/15 09:32:22;;;;;;;4.35;1.67;;;;;;;;;;5002874;28;20058;-83
2022/06/15 09:35:16;;;;;;;5.07;1.77;;;;;;;;;;5003518;28;20474;-84
2022/06/15 09:38:06;;;;;;;2.75;1.60;;;;;;;;;;4997840;28;20042;-83
2022/06/15 09:40:57;;;;;;;6.00;2.50;;;;;;;;;;4996101;28;20117;-84
2022/06/15 09:43:55;;;;;;;5.50;2.05;;;;;;;;;;5004364;28;20493;-84
2022/06/15 09:47:29;;;;;;;4.90;1.67;;;;;;;;;;5000827;28;20050;-86
2022/06/15 09:50:48;;;;;;;4.13;2.00;;;;;;;;;;4974555;28;20046;-84
2022/06/15 09:53:48;;;;;;;5.22;1.90;;;;;;;;;;4973851;28;20055;-86
2022/06/15 09:56:34;;;;;;;5.72;1.88;;;;;;;;;;5000708;28;20054;-84
2022/06/15 09:59:21;;;;;;;4.25;1.60;;;;;;;;;;4996941;28;20054;-86
2022/06/15 10:02:19;;;;;;;10.38;1.80;;;;;;;;;;5007427;28;20469;-83
2022/06/15 10:05:13;;;;;;;4.82;1.77;;;;;;;;;;4996673;28;20050;-84
2022/06/15 10:08:03;;;;;;;4.93;1.70;;;;;;;;;;4992314;28;20493;-85
2022/06/15 10:10:52;;;;;;;2.75;1.48;;;;;;;;;;4996680;28;20050;-85
2022/06/15 10:13:43;;;;;;;4.30;2.00;;;;;;;;;;5001448;28;20046;-86
2022/06/15 10:16:33;;;;;;;4.00;1.92;;;;;;;;;;5008341;28;20486;-84
2022/06/15 10:20:00;;;;;;;3.92;1.92;;;;;;;;;;4987240;28;20409;-85
2022/06/15 10:31:04;;;;;;;5.15;1.70;;;;;;;;;;4955652;29;20047;-85
2022/06/15 10:33:51;;;;;;;5.15;1.90;;;;;;;;;;4959611;28;20063;-88
2022/06/15 10:37:31;;;;;;;6.70;2.00;;;;;;;;;;4955440;29;20055;-84
2022/06/15 10:45:21;;;;;;;4.57;1.90;;;;;;;;;;4960645;28;20533;-87
2022/06/15 10:48:14;;;;;;;4.38;1.85;;;;;;;;;;4969473;28;20042;-84
2022/06/15 10:51:06;;;;;;;5.50;1.92;;;;;;;;;;4976837;28;20047;-85
2022/06/15 10:54:14;;;;;;;6.55;2.88;;;;;;;;;;4983420;28;20047;-84
2022/06/15 11:03:31;;;;;;;3.50;1.90;;;;;;;;;;4982086;28;20058;-84
2022/06/15 11:06:18;;;;;;;3.45;1.50;;;;;;;;;;4975570;28;20047;-85
2022/06/15 11:09:15;;;;;;;7.90;2.42;;;;;;;;;;4975686;28;20043;-86
2022/06/15 11:12:09;;;;;;;6.53;2.22;;;;;;;;;;4982062;28;20050;-86
2022/06/15 11:15:01;;;;;;;4.18;2.10;;;;;;;;;;4976850;28;20042;-86
2022/06/15 11:18:06;;;;;;;7.28;2.05;;;;;;;;;;4976075;28;20051;-87
2022/06/15 11:20:58;;;;;;;4.55;1.80;;;;;;;;;;4977201;28;20050;-85
2022/06/15 11:24:06;;;;;;;8.90;4.05;;;;;;;;;;4975671;28;20047;-85
2022/06/15 11:27:03;;;;;;;6.00;2.22;;;;;;;;;;4984957;28;20088;-83
2022/06/15 11:30:04;;;;;;;8.25;2.28;;;;;;;;;;4981395;28;20470;-84
2022/06/15 11:33:22;;;;;;;7.03;2.00;;;;;;;;;;4974207;28;20043;-83
2022/06/15 11:36:17;;;;;;;2.95;1.60;;;;;;;;;;4982246;28;20059;-84
2022/06/15 11:39:31;;;;;;;22.90;13.23;;;;;;;;;;4981518;28;20042;-84
2022/06/15 11:42:19;;;;;;;4.35;3.13;;;;;;;;;;4974462;28;20039;-83
2022/06/15 11:54:48;;;;;;;5.18;1.95;;;;;;;;;;4894743;29;20060;-83
2022/06/15 11:58:23;;;;;;;4.20;1.98;;;;;;;;;;4898175;29;20488;-84
2022/06/15 12:18:47;;;;;;;5.10;1.90;;;;;;;;;;4973828;28;20042;-82
2022/06/15 12:26:42;;;;;;;9.40;2.00;;;;;;;;;;4919114;28;20062;-85
2022/06/15 12:38:45;;;;;;;6.30;2.03;;;;;;;;;;4961065;28;20043;-83
2022/06/15 12:45:14;;;;;;;9.98;2.47;;;;;;;;;;4976358;28;20050;-86
2022/06/15 12:48:03;;;;;;;4.43;1.90;;;;;;;;;;4981825;28;20050;-85
2022/06/15 12:50:53;;;;;;;5.03;1.90;;;;;;;;;;4982456;28;20043;-85
2022/06/15 12:54:00;;;;;;;8.35;2.13;;;;;;;;;;4975873;28;20474;-84
2022/06/15 12:57:09;;;;;;;5.97;2.58;;;;;;;;;;4974378;28;20462;-84
2022/06/15 12:59:54;;;;;;;7.00;2.10;;;;;;;;;;4974890;28;20047;-84
2022/06/15 13:03:12;;;;;;;9.95;2.08;;;;;;;;;;4974954;28;20046;-85
2022/06/15 13:06:25;;;;;;;3.25;1.77;;;;;;;;;;4955046;28;20051;-85
2022/06/15 13:09:18;;;;;;;6.97;2.88;;;;;;;;;;4978121;28;20054;-83
2022/06/15 13:12:08;;;;;;;4.72;1.80;;;;;;;;;;4984167;28;20055;-83
2022/06/15 13:14:58;;;;;;;3.53;1.55;;;;;;;;;;4977745;28;20050;-84
2022/06/15 13:18:09;;;;;;;4.18;1.73;;;;;;;;;;4983836;28;20051;-85
2022/06/15 13:20:58;;;;;;;5.95;1.80;;;;;;;;;;4984217;28;20039;-84
2022/06/15 13:24:06;;;;;;;7.85;2.08;;;;;;;;;;4977386;28;20043;-84
2022/06/15 13:26:56;;;;;;;4.00;1.77;;;;;;;;;;4978129;28;20055;-83
2022/06/15 13:29:51;;;;;;;3.72;1.90;;;;;;;;;;4983504;28;20047;-85
2022/06/15 13:33:05;;;;;;;3.85;1.85;;;;;;;;;;4978033;28;20050;-84
2022/06/15 13:36:13;;;;;;;3.90;1.77;;;;;;;;;;4977354;28;20050;-85
2022/06/15 13:38:59;;;;;;;3.20;1.80;;;;;;;;;;4977318;28;20474;-85
2022/06/15 13:42:10;;;;;;;8.32;1.80;;;;;;;;;;4984350;28;20050;-84
2022/06/15 13:45:05;;;;;;;6.68;1.63;;;;;;;;;;4983554;28;20047;-83
2022/06/15 13:47:58;;;;;;;5.05;1.88;;;;;;;;;;4983604;28;20047;-84
2022/06/15 13:50:57;;;;;;;2.42;1.50;;;;;;;;;;4975621;28;20054;-84
2022/06/15 13:54:10;;;;;;;4.65;1.60;;;;;;;;;;4983296;28;20047;-87
2022/06/15 13:57:35;;;;;;;4.00;1.77;;;;;;;;;;4975828;28;20050;-84
2022/06/15 14:01:02;;;;;;;5.85;1.75;;;;;;;;;;4978940;28;20393;-86
2022/06/15 14:04:31;;;;;;;3.15;1.70;;;;;;;;;;4983352;28;20043;-84
2022/06/15 14:08:13;;;;;;;5.22;2.30;;;;;;;;;;4982790;28;20050;-86
2022/06/15 14:11:06;;;;;;;4.35;1.90;;;;;;;;;;4978833;28;20478;-84
2022/06/15 14:14:25;;;;;;;3.28;1.77;;;;;;;;;;4989025;28;20050;-86
2022/06/15 14:17:29;;;;;;;6.47;1.67;;;;;;;;;;4989161;28;20390;-85
2022/06/15 14:20:35;;;;;;;4.28;1.95;;;;;;;;;;4989067;28;20051;-86
2022/06/15 14:23:36;;;;;;;6.10;2.38;;;;;;;;;;4977647;28;20042;-84
2022/06/15 14:26:24;;;;;;;2.55;1.80;;;;;;;;;;4983845;28;20054;-85
2022/06/15 14:29:13;;;;;;;2.70;1.70;;;;;;;;;;4963007;28;20046;-83
2022/06/15 14:31:59;;;;;;;9.50;6.68;;;;;;;;;;4983124;28;20051;-86
2022/06/15 14:34:44;;;;;;;15.27;9.75;;;;;;;;;;4975770;28;20050;-84
2022/06/15 14:37:29;;;;;;;9.43;2.72;;;;;;;;;;4976245;28;20047;-84
2022/06/15 14:40:37;;;;;;;4.50;2.45;;;;;;;;;;4975998;28;20051;-84
2022/06/15 14:43:34;;;;;;;4.35;2.38;;;;;;;;;;4976012;28;20046;-81
2022/06/15 14:46:23;;;;;;;5.15;2.45;;;;;;;;;;4976302;28;20066;-82
2022/06/15 14:49:11;;;;;;;3.55;2.10;;;;;;;;;;4982187;28;20050;-84
2022/06/15 14:52:17;;;;;;;7.15;1.90;;;;;;;;;;4982368;28;20474;-83
2022/06/15 14:55:14;;;;;;;6.00;2.13;;;;;;;;;;4974464;28;20050;-84
2022/06/15 14:58:16;;;;;;;6.05;2.40;;;;;;;;;;4976157;28;20046;-84
2022/06/15 15:01:11;;;;;;;6.68;2.70;;;;;;;;;;4976622;28;20046;-82
2022/06/15 15:04:12;;;;;;;39.90;18.20;;;;;;;;;;4982566;28;20046;-83
2022/06/15 15:08:05;;;;;;;9.77;3.53;;;;;;;;;;4976666;28;20039;-84
2022/06/15 15:10:45;;;;;;;8.18;3.22;;;;;;;;;;4977133;28;20050;-83
2022/06/15 15:13:38;;;;;;;7.80;2.63;;;;;;;;;;4961220;28;20043;-83
2022/06/15 15:16:32;;;;;;;5.30;2.10;;;;;;;;;;4978922;28;20058;-82
2022/06/15 15:19:35;;;;;;;15.60;7.93;;;;;;;;;;4977924;28;20046;-83
2022/06/15 15:22:23;;;;;;;5.40;4.00;;;;;;;;;;4976582;28;20050;-85
2022/06/15 15:25:08;;;;;;;16.58;4.00;;;;;;;;;;4975767;28;20043;-83
2022/06/15 15:34:31;;;;;;;3.83;2.00;;;;;;;;;;4983894;28;20047;-83
2022/06/15 15:37:35;;;;;;;13.45;9.40;;;;;;;;;;4974635;28;20478;-84
2022/06/15 15:40:24;;;;;;;;;;;;;;;;;;4975556;28;20047;-83
2022/06/15 15:43:09;;;;;;;3.33;2.03;;;;;;;;;;4983537;28;19917;-84
2022/06/15 15:45:56;;;;;;;9.50;2.22;;;;;;;;;;4997600;28;20058;-83
2022/06/15 15:48:42;;;;;;;3.70;2.05;;;;;;;;;;4987550;28;20050;-83
2022/06/15 15:51:27;;;;;;;5.18;1.88;;;;;;;;;;4986497;28;20042;-83
2022/06/15 15:54:15;;;;;;;3.72;2.22;;;;;;;;;;4992617;28;20051;-83
2022/06/15 15:57:19;;;;;;;9.88;5.18;;;;;;;;;;4996132;28;20050;-84
2022/06/15 16:00:23;;;;;;;7.20;2.10;;;;;;;;;;4986688;28;20054;-84
2022/06/15 16:03:22;;;;;;;;;;;;;;;;;;;;;
2022/06/15 16:06:16;;;;;;;2.72;1.80;;;;;;;;;;4994384;28;20081;-82
2022/06/15 16:09:10;;;;;;;3.22;1.90;;;;;;;;;;4994696;28;20397;-84
2022/06/15 16:12:04;;;;;;;;;;;;;;;;;;4994634;28;20050;-83
2022/06/15 16:14:57;;;;;;;8.93;2.10;;;;;;;;;;5000546;28;19914;-85
2022/06/15 16:17:48;;;;;;;10.98;2.15;;;;;;;;;;4992995;28;20109;-84
2022/06/15 16:20:36;;;;;;;5.38;2.13;;;;;;;;;;4994528;28;20042;-85
2022/06/15 16:23:24;;;;;;;5.28;1.98;;;;;;;;;;4997415;28;20042;-83
2022/06/15 16:26:11;;;;;;;4.22;2.10;;;;;;;;;;4993844;28;20046;-83
2022/06/15 16:28:59;;;;;;;7.40;2.47;;;;;;;;;;5000813;28;20046;-83
2022/06/15 16:31:45;;;;;;;4.57;2.13;;;;;;;;;;4994137;28;20058;-84
2022/06/15 16:34:30;;;;;;;6.95;2.20;;;;;;;;;;4990952;28;20398;-83
2022/06/15 16:37:15;;;;;;;5.18;2.28;;;;;;;;;;4992258;28;20046;-81
2022/06/15 16:40:01;;;;;;;3.15;2.05;;;;;;;;;;4993565;28;20046;-82
2022/06/15 16:42:46;;;;;;;4.70;2.10;;;;;;;;;;4996857;28;20050;-82
2022/06/15 16:45:34;;;;;;;2.97;1.90;;;;;;;;;;5004238;28;20062;-84
2022/06/15 16:48:19;;;;;;;5.57;2.20;;;;;;;;;;4996738;28;20054;-82
2022/06/15 16:51:07;;;;;;;7.88;2.30;;;;;;;;;;5014236;28;20045;-83
2022/06/15 16:53:53;;;;;;;2.65;1.80;;;;;;;;;;5023637;28;20053;-83
2022/06/15 16:56:45;;;;;;;7.07;2.70;;;;;;;;;;5007596;28;20046;-83
2022/06/15 16:59:33;;;;;;;7.95;2.42;;;;;;;;;;5004034;28;20054;-84
2022/06/15 17:02:18;;;;;;;5.45;2.22;;;;;;;;;;5003730;28;20042;-81
2022/06/15 17:05:08;;;;;;;3.63;2.15;;;;;;;;;;5003632;28;20493;-81
2022/06/15 17:07:53;;;;;;;6.72;2.15;;;;;;;;;;5003742;28;20062;-82
2022/06/15 17:10:39;;;;;;;4.75;2.28;;;;;;;;;;5003504;28;20482;-83
2022/06/15 17:13:25;;;;;;;5.13;2.33;;;;;;;;;;5003582;28;20481;-83
2022/06/15 17:16:12;;;;;;;5.32;2.15;;;;;;;;;;4996769;28;20051;-84
2022/06/15 17:18:57;;;;;;;4.70;2.03;;;;;;;;;;5001052;28;20050;-83
2022/06/15 17:21:48;;;;;;;8.85;2.28;;;;;;;;;;5002818;28;20046;-86
2022/06/15 17:24:45;;;;;;;9.75;2.55;;;;;;;;;;4988841;28;20066;-85
2022/06/15 18:06:36;;;;;;;8.48;3.63;;;;;;;;;;4861020;29;20049;-84
2022/06/15 18:09:32;;;;;;;7.63;3.63;;;;;;;;;;4956359;29;20474;-83
2022/06/15 18:12:18;;;;;;;9.30;4.20;;;;;;;;;;4963812;28;20055;-83
2022/06/15 18:15:04;;;;;;;8.13;4.30;;;;;;;;;;4956811;29;20486;-83
2022/06/15 18:17:51;;;;;;;8.52;4.20;;;;;;;;;;4963307;28;20055;-82
2022/06/15 18:20:41;;;;;;;14.00;4.55;;;;;;;;;;4966751;28;20113;-83
2022/06/15 18:23:28;;;;;;;8.30;4.53;;;;;;;;;;4983004;28;20394;-83
2022/06/15 18:26:14;;;;;;;7.57;3.83;;;;;;;;;;4995801;28;20046;-80
2022/06/15 18:28:59;;;;;;;7.07;3.72;;;;;;;;;;5005097;28;20054;-82
2022/06/15 18:31:53;;;;;;;9.50;3.58;;;;;;;;;;5002621;28;20042;-80
2022/06/15 18:34:40;;;;;;;8.87;3.23;;;;;;;;;;4988717;28;20046;-82
2022/06/15 18:37:25;;;;;;;9.07;3.10;;;;;;;;;;4983962;28;20486;-83
2022/06/15 18:40:14;;;;;;;4.90;2.97;;;;;;;;;;4995352;28;20038;-83
2022/06/15 18:43:00;;;;;;;7.78;3.38;;;;;;;;;;4995258;28;20405;-84
2022/06/15 18:48:49;;;;;;;5.70;3.10;;;;;;;;;;5001474;28;20050;-82
2022/06/15 18:51:34;;;;;;;12.50;3.33;;;;;;;;;;4979727;28;20050;-82
2022/06/15 18:54:20;;;;;;;7.60;3.00;;;;;;;;;;4979213;28;20051;-81
2022/06/15 18:57:05;;;;;;;7.80;2.85;;;;;;;;;;4981901;28;20074;-82
2022/06/15 18:59:59;;;;;;;6.18;2.65;;;;;;;;;;5000975;28;20045;-83
2022/06/15 19:02:48;;;;;;;6.47;3.00;;;;;;;;;;4999948;28;20039;-82
2022/06/15 19:05:34;;;;;;;6.80;3.20;;;;;;;;;;4990437;28;20393;-83
2022/06/15 19:08:20;;;;;;;11.07;3.10;;;;;;;;;;4995052;28;20054;-82
2022/06/15 19:11:08;;;;;;;6.25;2.60;;;;;;;;;;4999938;28;20046;-83
2022/06/15 19:13:52;;;;;;;9.15;2.58;;;;;;;;;;4989674;28;20050;-82
2022/06/15 19:16:37;;;;;;;3.97;2.60;;;;;;;;;;4999095;28;20050;-83
2022/06/15 19:19:23;;;;;;;6.47;2.53;;;;;;;;;;4988297;28;20042;-82
2022/06/15 19:22:08;;;;;;;5.38;2.40;;;;;;;;;;5001369;28;20050;-83
2022/06/15 19:24:54;;;;;;;5.28;2.92;;;;;;;;;;5001346;28;20054;-83
2022/06/15 19:27:40;;;;;;;11.85;3.70;;;;;;;;;;5001213;28;20046;-84
2022/06/15 19:30:27;;;;;;;9.52;2.67;;;;;;;;;;4993973;28;20039;-84
2022/06/15 19:33:14;;;;;;;11.10;2.80;;;;;;;;;;5001311;28;20046;-83
2022/06/15 19:36:00;;;;;;;6.00;2.60;;;;;;;;;;5001448;28;20047;-84
2022/06/15 19:38:45;;;;;;;4.45;2.70;;;;;;;;;;4995828;28;20046;-82
2022/06/15 19:41:32;;;;;;;3.88;2.30;;;;;;;;;;5000844;28;20038;-83
2022/06/15 19:44:18;;;;;;;10.15;2.92;;;;;;;;;;4997056;28;20042;-83
2022/06/15 19:47:05;;;;;;;5.32;2.28;;;;;;;;;;4999428;28;20046;-82
2022/06/15 19:49:52;;;;;;;8.57;2.63;;;;;;;;;;4993648;28;20397;-82
2022/06/15 19:52:37;;;;;;;8.10;2.63;;;;;;;;;;5000574;28;20046;-84
2022/06/15 19:55:23;;;;;;;7.03;2.40;;;;;;;;;;4992831;28;20043;-83
2022/06/15 19:58:09;;;;;;;5.15;2.72;;;;;;;;;;4997967;28;20042;-81
2022/06/15 20:00:55;;;;;;;8.05;2.58;;;;;;;;;;4997787;28;20046;-83
2022/06/15 20:03:40;;;;;;;7.00;2.40;;;;;;;;;;4992044;28;20104;-83